sensor_id;sensor_type;location;lat;lon;timestamp;P1;durP1;ratioP1;P2;durP2;ratioP2
13801;SDS011;6972;51.518;6.918;2023-06-14T00:00:40;8.65;;;3.83;;
13801;SDS011;6972;51.518;6.918;2023-06-14T00:03:07;4.25;;;3.08;;
13801;SDS011;6972;51.518;6.918;2023-06-14T00:05:35;4.85;;;3.53;;
13801;SDS011;6972;51.518;6.918;2023-06-14T00:08:05;9.18;;;3.42;;
13801;SDS011;6972;51.518;6.918;2023-06-14T00:10:33;7.78;;;3.80;;
13801;SDS011;6972;51.518;6.918;2023-06-14T00:13:03;7.22;;;3.72;;
13801;SDS011;6972;51.518;6.918;2023-06-14T00:15:30;7.00;;;3.72;;
13801;SDS011;6972;51.518;6.918;2023-06-14T00:17:57;7.85;;;3.65;;
13801;SDS011;6972;51.518;6.918;2023-06-14T00:20:26;11.65;;;3.55;;
13801;SDS011;6972;51.518;6.918;2023-06-14T00:22:52;7.22;;;3.53;;
13801;SDS011;6972;51.518;6.918;2023-06-14T00:25:20;10.00;;;3.78;;
13801;SDS011;6972;51.518;6.918;2023-06-14T00:27:46;6.18;;;3.50;;
13801;SDS011;6972;51.518;6.918;2023-06-14T00:30:12;5.53;;;3.35;;
13801;SDS011;6972;51.518;6.918;2023-06-14T00:32:38;7.28;;;3.40;;
13801;SDS011;6972;51.518;6.918;2023-06-14T00:35:04;7.75;;;3.50;;
13801;SDS011;6972;51.518;6.918;2023-06-14T00:37:32;4.80;;;3.50;;
13801;SDS011;6972;51.518;6.918;2023-06-14T00:39:58;5.35;;;3.47;;
13801;SDS011;6972;51.518;6.918;2023-06-14T00:42:25;6.05;;;3.60;;
13801;SDS011;6972;51.518;6.918;2023-06-14T00:44:51;9.05;;;3.33;;
13801;SDS011;6972;51.518;6.918;2023-06-14T00:47:18;9.00;;;3.58;;
13801;SDS011;6972;51.518;6.918;2023-06-14T00:49:45;9.02;;;3.55;;
13801;SDS011;6972;51.518;6.918;2023-06-14T00:52:11;4.65;;;3.20;;
13801;SDS011;6972;51.518;6.918;2023-06-14T00:54:39;5.80;;;3.45;;
13801;SDS011;6972;51.518;6.918;2023-06-14T00:57:06;6.47;;;3.35;;
13801;SDS011;6972;51.518;6.918;2023-06-14T00:59:33;3.60;;;3.15;;
13801;SDS011;6972;51.518;6.918;2023-06-14T01:02:02;7.65;;;3.38;;
13801;SDS011;6972;51.518;6.918;2023-06-14T01:04:45;8.30;;;3.63;;
13801;SDS011;6972;51.518;6.918;2023-06-14T01:07:18;8.35;;;3.47;;
13801;SDS011;6972;51.518;6.918;2023-06-14T01:14:41;4.95;;;3.20;;
13801;SDS011;6972;51.518;6.918;2023-06-14T01:17:07;4.35;;;3.05;;
13801;SDS011;6972;51.518;6.918;2023-06-14T01:19:44;5.32;;;3.10;;
13801;SDS011;6972;51.518;6.918;2023-06-14T01:22:10;8.15;;;3.30;;
13801;SDS011;6972;51.518;6.918;2023-06-14T01:24:37;4.72;;;2.88;;
13801;SDS011;6972;51.518;6.918;2023-06-14T01:27:04;5.70;;;3.22;;
13801;SDS011;6972;51.518;6.918;2023-06-14T01:29:32;4.78;;;3.30;;
13801;SDS011;6972;51.518;6.918;2023-06-14T01:32:01;3.75;;;2.80;;
13801;SDS011;6972;51.518;6.918;2023-06-14T01:34:27;3.95;;;2.83;;
13801;SDS011;6972;51.518;6.918;2023-06-14T01:36:53;7.35;;;3.38;;
13801;SDS011;6972;51.518;6.918;2023-06-14T01:39:20;7.65;;;2.88;;
13801;SDS011;6972;51.518;6.918;2023-06-14T01:41:47;4.32;;;2.80;;
13801;SDS011;6972;51.518;6.918;2023-06-14T01:44:14;6.05;;;2.90;;
13801;SDS011;6972;51.518;6.918;2023-06-14T01:46:41;6.07;;;3.25;;
13801;SDS011;6972;51.518;6.918;2023-06-14T01:49:07;4.25;;;2.92;;
13801;SDS011;6972;51.518;6.918;2023-06-14T01:51:33;4.13;;;2.80;;
13801;SDS011;6972;51.518;6.918;2023-06-14T01:54:00;9.48;;;3.10;;
13801;SDS011;6972;51.518;6.918;2023-06-14T01:56:26;3.67;;;2.55;;
13801;SDS011;6972;51.518;6.918;2023-06-14T01:58:53;10.00;;;3.47;;
13801;SDS011;6972;51.518;6.918;2023-06-14T02:01:19;8.13;;;3.03;;
13801;SDS011;6972;51.518;6.918;2023-06-14T02:03:46;6.88;;;2.55;;
13801;SDS011;6972;51.518;6.918;2023-06-14T02:06:14;5.80;;;2.78;;
13801;SDS011;6972;51.518;6.918;2023-06-14T02:08:41;5.80;;;3.00;;
13801;SDS011;6972;51.518;6.918;2023-06-14T02:11:07;6.47;;;3.25;;
13801;SDS011;6972;51.518;6.918;2023-06-14T02:13:33;4.18;;;2.83;;
13801;SDS011;6972;51.518;6.918;2023-06-14T02:16:00;3.22;;;2.80;;
13801;SDS011;6972;51.518;6.918;2023-06-14T02:18:26;8.52;;;2.85;;
13801;SDS011;6972;51.518;6.918;2023-06-14T02:20:52;4.65;;;3.10;;
13801;SDS011;6972;51.518;6.918;2023-06-14T02:23:18;4.22;;;2.70;;
13801;SDS011;6972;51.518;6.918;2023-06-14T02:25:45;8.98;;;3.38;;
13801;SDS011;6972;51.518;6.918;2023-06-14T02:28:11;12.98;;;3.00;;
13801;SDS011;6972;51.518;6.918;2023-06-14T02:30:37;5.35;;;3.03;;
13801;SDS011;6972;51.518;6.918;2023-06-14T02:33:04;3.83;;;3.00;;
13801;SDS011;6972;51.518;6.918;2023-06-14T02:35:30;4.68;;;2.95;;
13801;SDS011;6972;51.518;6.918;2023-06-14T02:37:57;7.70;;;2.90;;
13801;SDS011;6972;51.518;6.918;2023-06-14T02:40:23;4.78;;;3.00;;
13801;SDS011;6972;51.518;6.918;2023-06-14T02:42:49;6.35;;;2.90;;
13801;SDS011;6972;51.518;6.918;2023-06-14T02:45:16;11.98;;;3.20;;
13801;SDS011;6972;51.518;6.918;2023-06-14T02:47:42;8.07;;;3.42;;
13801;SDS011;6972;51.518;6.918;2023-06-14T02:50:08;5.57;;;3.10;;
13801;SDS011;6972;51.518;6.918;2023-06-14T02:52:34;5.97;;;2.97;;
13801;SDS011;6972;51.518;6.918;2023-06-14T02:55:00;8.57;;;2.97;;
13801;SDS011;6972;51.518;6.918;2023-06-14T02:57:27;3.65;;;2.28;;
13801;SDS011;6972;51.518;6.918;2023-06-14T02:59:53;3.83;;;2.50;;
13801;SDS011;6972;51.518;6.918;2023-06-14T03:02:19;6.55;;;3.10;;
13801;SDS011;6972;51.518;6.918;2023-06-14T03:04:45;7.15;;;2.60;;
13801;SDS011;6972;51.518;6.918;2023-06-14T03:07:11;9.20;;;3.00;;
13801;SDS011;6972;51.518;6.918;2023-06-14T03:09:38;4.85;;;3.10;;
13801;SDS011;6972;51.518;6.918;2023-06-14T03:12:05;9.25;;;2.70;;
13801;SDS011;6972;51.518;6.918;2023-06-14T03:14:35;4.93;;;2.83;;
13801;SDS011;6972;51.518;6.918;2023-06-14T03:17:01;5.28;;;2.83;;
13801;SDS011;6972;51.518;6.918;2023-06-14T03:19:29;7.55;;;3.33;;
13801;SDS011;6972;51.518;6.918;2023-06-14T03:21:55;4.75;;;2.80;;
13801;SDS011;6972;51.518;6.918;2023-06-14T03:24:23;4.05;;;2.90;;
13801;SDS011;6972;51.518;6.918;2023-06-14T03:26:49;7.15;;;3.17;;
13801;SDS011;6972;51.518;6.918;2023-06-14T03:29:15;6.00;;;2.80;;
13801;SDS011;6972;51.518;6.918;2023-06-14T03:31:55;7.35;;;2.85;;
13801;SDS011;6972;51.518;6.918;2023-06-14T03:34:22;3.90;;;2.65;;
13801;SDS011;6972;51.518;6.918;2023-06-14T03:36:48;8.00;;;2.70;;
13801;SDS011;6972;51.518;6.918;2023-06-14T03:39:14;4.95;;;2.85;;
13801;SDS011;6972;51.518;6.918;2023-06-14T03:41:40;5.70;;;2.88;;
13801;SDS011;6972;51.518;6.918;2023-06-14T03:44:06;5.72;;;2.80;;
13801;SDS011;6972;51.518;6.918;2023-06-14T03:46:35;5.72;;;2.95;;
13801;SDS011;6972;51.518;6.918;2023-06-14T03:49:01;3.97;;;2.90;;
13801;SDS011;6972;51.518;6.918;2023-06-14T03:51:28;7.80;;;2.95;;
13801;SDS011;6972;51.518;6.918;2023-06-14T03:53:54;7.43;;;2.90;;
13801;SDS011;6972;51.518;6.918;2023-06-14T03:56:21;4.63;;;2.70;;
13801;SDS011;6972;51.518;6.918;2023-06-14T03:58:47;8.40;;;2.80;;
13801;SDS011;6972;51.518;6.918;2023-06-14T04:01:13;8.10;;;2.78;;
13801;SDS011;6972;51.518;6.918;2023-06-14T04:03:39;6.95;;;2.65;;
13801;SDS011;6972;51.518;6.918;2023-06-14T04:06:05;6.20;;;3.03;;
13801;SDS011;6972;51.518;6.918;2023-06-14T04:08:32;5.00;;;2.58;;
13801;SDS011;6972;51.518;6.918;2023-06-14T04:10:59;8.07;;;2.80;;
13801;SDS011;6972;51.518;6.918;2023-06-14T04:13:25;5.32;;;3.28;;
13801;SDS011;6972;51.518;6.918;2023-06-14T04:15:52;6.53;;;2.53;;
13801;SDS011;6972;51.518;6.918;2023-06-14T04:18:18;4.60;;;2.40;;
13801;SDS011;6972;51.518;6.918;2023-06-14T04:20:45;4.57;;;3.00;;
13801;SDS011;6972;51.518;6.918;2023-06-14T04:23:15;5.18;;;2.80;;
13801;SDS011;6972;51.518;6.918;2023-06-14T04:25:43;5.35;;;2.65;;
13801;SDS011;6972;51.518;6.918;2023-06-14T04:28:12;5.22;;;2.65;;
13801;SDS011;6972;51.518;6.918;2023-06-14T04:30:42;3.83;;;2.80;;
13801;SDS011;6972;51.518;6.918;2023-06-14T04:33:09;5.25;;;2.88;;
13801;SDS011;6972;51.518;6.918;2023-06-14T04:35:36;7.70;;;3.65;;
13801;SDS011;6972;51.518;6.918;2023-06-14T04:38:03;7.45;;;3.03;;
13801;SDS011;6972;51.518;6.918;2023-06-14T04:40:35;6.10;;;2.95;;
13801;SDS011;6972;51.518;6.918;2023-06-14T04:43:07;4.47;;;2.58;;
13801;SDS011;6972;51.518;6.918;2023-06-14T04:45:33;5.28;;;2.97;;
13801;SDS011;6972;51.518;6.918;2023-06-14T04:48:01;8.43;;;2.70;;
13801;SDS011;6972;51.518;6.918;2023-06-14T04:50:28;7.07;;;3.35;;
13801;SDS011;6972;51.518;6.918;2023-06-14T04:52:57;11.65;;;2.92;;
13801;SDS011;6972;51.518;6.918;2023-06-14T04:55:24;7.90;;;2.92;;
13801;SDS011;6972;51.518;6.918;2023-06-14T04:57:51;8.18;;;3.10;;
13801;SDS011;6972;51.518;6.918;2023-06-14T05:00:19;10.18;;;3.10;;
13801;SDS011;6972;51.518;6.918;2023-06-14T05:02:45;4.53;;;2.63;;
13801;SDS011;6972;51.518;6.918;2023-06-14T05:05:12;4.35;;;2.42;;
13801;SDS011;6972;51.518;6.918;2023-06-14T05:07:38;7.25;;;2.92;;
13801;SDS011;6972;51.518;6.918;2023-06-14T05:10:04;4.40;;;2.70;;
13801;SDS011;6972;51.518;6.918;2023-06-14T05:12:34;4.88;;;2.65;;
13801;SDS011;6972;51.518;6.918;2023-06-14T05:15:00;4.43;;;2.78;;
13801;SDS011;6972;51.518;6.918;2023-06-14T05:17:26;4.70;;;2.72;;
13801;SDS011;6972;51.518;6.918;2023-06-14T05:19:53;6.68;;;3.00;;
13801;SDS011;6972;51.518;6.918;2023-06-14T05:22:20;8.88;;;3.13;;
13801;SDS011;6972;51.518;6.918;2023-06-14T05:24:46;5.32;;;2.90;;
13801;SDS011;6972;51.518;6.918;2023-06-14T05:27:13;7.25;;;2.60;;
13801;SDS011;6972;51.518;6.918;2023-06-14T05:29:39;7.68;;;2.80;;
13801;SDS011;6972;51.518;6.918;2023-06-14T05:32:05;6.15;;;2.70;;
13801;SDS011;6972;51.518;6.918;2023-06-14T05:34:31;10.73;;;2.67;;
13801;SDS011;6972;51.518;6.918;2023-06-14T05:37:00;5.15;;;2.25;;
13801;SDS011;6972;51.518;6.918;2023-06-14T05:39:28;7.60;;;2.78;;
13801;SDS011;6972;51.518;6.918;2023-06-14T05:41:58;7.75;;;2.47;;
13801;SDS011;6972;51.518;6.918;2023-06-14T05:44:24;6.70;;;2.47;;
13801;SDS011;6972;51.518;6.918;2023-06-14T05:46:50;4.50;;;2.50;;
13801;SDS011;6972;51.518;6.918;2023-06-14T05:49:16;9.52;;;2.47;;
13801;SDS011;6972;51.518;6.918;2023-06-14T05:51:42;5.30;;;2.50;;
13801;SDS011;6972;51.518;6.918;2023-06-14T05:54:08;6.13;;;2.75;;
13801;SDS011;6972;51.518;6.918;2023-06-14T05:56:34;7.07;;;2.60;;
13801;SDS011;6972;51.518;6.918;2023-06-14T05:59:01;6.10;;;2.72;;
13801;SDS011;6972;51.518;6.918;2023-06-14T06:01:27;8.20;;;2.50;;
13801;SDS011;6972;51.518;6.918;2023-06-14T06:03:53;11.90;;;2.30;;
13801;SDS011;6972;51.518;6.918;2023-06-14T06:06:19;7.95;;;2.75;;
13801;SDS011;6972;51.518;6.918;2023-06-14T06:08:45;12.75;;;2.55;;
13801;SDS011;6972;51.518;6.918;2023-06-14T06:11:11;6.30;;;2.60;;
13801;SDS011;6972;51.518;6.918;2023-06-14T06:13:37;10.57;;;2.85;;
13801;SDS011;6972;51.518;6.918;2023-06-14T06:16:04;8.07;;;2.47;;
13801;SDS011;6972;51.518;6.918;2023-06-14T06:18:30;4.57;;;2.33;;
13801;SDS011;6972;51.518;6.918;2023-06-14T06:20:56;5.82;;;2.40;;
13801;SDS011;6972;51.518;6.918;2023-06-14T06:23:22;4.80;;;2.22;;
13801;SDS011;6972;51.518;6.918;2023-06-14T06:25:48;8.27;;;2.30;;
13801;SDS011;6972;51.518;6.918;2023-06-14T06:28:14;3.58;;;2.05;;
13801;SDS011;6972;51.518;6.918;2023-06-14T06:30:40;3.25;;;2.40;;
13801;SDS011;6972;51.518;6.918;2023-06-14T06:33:06;4.47;;;2.38;;
13801;SDS011;6972;51.518;6.918;2023-06-14T06:35:33;4.53;;;2.25;;
13801;SDS011;6972;51.518;6.918;2023-06-14T06:37:59;3.08;;;2.05;;
13801;SDS011;6972;51.518;6.918;2023-06-14T06:40:26;4.47;;;2.10;;
13801;SDS011;6972;51.518;6.918;2023-06-14T06:42:52;6.45;;;2.25;;
13801;SDS011;6972;51.518;6.918;2023-06-14T06:45:19;5.70;;;2.20;;
13801;SDS011;6972;51.518;6.918;2023-06-14T06:47:45;11.77;;;2.47;;
13801;SDS011;6972;51.518;6.918;2023-06-14T06:50:11;3.28;;;2.03;;
13801;SDS011;6972;51.518;6.918;2023-06-14T06:52:37;2.80;;;1.90;;
13801;SDS011;6972;51.518;6.918;2023-06-14T06:55:03;6.82;;;2.10;;
13801;SDS011;6972;51.518;6.918;2023-06-14T06:57:29;5.10;;;1.88;;
13801;SDS011;6972;51.518;6.918;2023-06-14T06:59:56;8.20;;;2.10;;
13801;SDS011;6972;51.518;6.918;2023-06-14T07:02:22;4.30;;;2.10;;
13801;SDS011;6972;51.518;6.918;2023-06-14T07:04:48;4.03;;;1.80;;
13801;SDS011;6972;51.518;6.918;2023-06-14T07:07:15;3.58;;;1.90;;
13801;SDS011;6972;51.518;6.918;2023-06-14T07:09:41;3.33;;;1.90;;
13801;SDS011;6972;51.518;6.918;2023-06-14T07:12:07;3.47;;;1.70;;
13801;SDS011;6972;51.518;6.918;2023-06-14T07:14:33;3.50;;;1.75;;
13801;SDS011;6972;51.518;6.918;2023-06-14T07:16:59;3.63;;;2.13;;
13801;SDS011;6972;51.518;6.918;2023-06-14T07:19:25;4.95;;;2.13;;
13801;SDS011;6972;51.518;6.918;2023-06-14T07:21:51;5.22;;;2.65;;
13801;SDS011;6972;51.518;6.918;2023-06-14T07:24:18;5.15;;;2.17;;
13801;SDS011;6972;51.518;6.918;2023-06-14T07:26:49;5.00;;;2.22;;
13801;SDS011;6972;51.518;6.918;2023-06-14T07:29:15;8.75;;;2.20;;
13801;SDS011;6972;51.518;6.918;2023-06-14T07:31:41;3.33;;;1.98;;
13801;SDS011;6972;51.518;6.918;2023-06-14T07:34:08;5.07;;;1.63;;
13801;SDS011;6972;51.518;6.918;2023-06-14T07:36:34;3.58;;;1.90;;
13801;SDS011;6972;51.518;6.918;2023-06-14T07:39:01;3.75;;;1.80;;
13801;SDS011;6972;51.518;6.918;2023-06-14T07:41:28;3.47;;;1.83;;
13801;SDS011;6972;51.518;6.918;2023-06-14T07:43:54;5.45;;;1.80;;
13801;SDS011;6972;51.518;6.918;2023-06-14T07:46:20;4.10;;;1.70;;
13801;SDS011;6972;51.518;6.918;2023-06-14T07:48:47;11.40;;;2.08;;
13801;SDS011;6972;51.518;6.918;2023-06-14T07:51:13;3.15;;;1.83;;
13801;SDS011;6972;51.518;6.918;2023-06-14T07:53:39;2.40;;;1.80;;
13801;SDS011;6972;51.518;6.918;2023-06-14T07:56:06;4.13;;;2.00;;
13801;SDS011;6972;51.518;6.918;2023-06-14T07:58:32;3.30;;;1.92;;
13801;SDS011;6972;51.518;6.918;2023-06-14T08:00:58;4.40;;;2.13;;
13801;SDS011;6972;51.518;6.918;2023-06-14T08:03:26;7.25;;;2.00;;
13801;SDS011;6972;51.518;6.918;2023-06-14T08:05:52;4.45;;;2.28;;
13801;SDS011;6972;51.518;6.918;2023-06-14T08:08:18;5.93;;;2.03;;
13801;SDS011;6972;51.518;6.918;2023-06-14T08:10:44;6.13;;;2.15;;
13801;SDS011;6972;51.518;6.918;2023-06-14T08:13:10;2.58;;;2.03;;
13801;SDS011;6972;51.518;6.918;2023-06-14T08:15:37;2.72;;;2.10;;
13801;SDS011;6972;51.518;6.918;2023-06-14T08:18:03;5.45;;;2.00;;
13801;SDS011;6972;51.518;6.918;2023-06-14T08:20:29;3.13;;;2.03;;
13801;SDS011;6972;51.518;6.918;2023-06-14T08:22:56;5.18;;;2.00;;
13801;SDS011;6972;51.518;6.918;2023-06-14T08:25:23;4.53;;;2.28;;
13801;SDS011;6972;51.518;6.918;2023-06-14T08:27:49;3.72;;;1.77;;
13801;SDS011;6972;51.518;6.918;2023-06-14T08:30:15;2.83;;;1.90;;
13801;SDS011;6972;51.518;6.918;2023-06-14T08:32:42;3.05;;;1.80;;
13801;SDS011;6972;51.518;6.918;2023-06-14T08:35:08;4.90;;;2.20;;
13801;SDS011;6972;51.518;6.918;2023-06-14T08:37:38;5.15;;;1.90;;
13801;SDS011;6972;51.518;6.918;2023-06-14T08:40:05;4.05;;;1.88;;
13801;SDS011;6972;51.518;6.918;2023-06-14T08:42:32;7.93;;;2.00;;
13801;SDS011;6972;51.518;6.918;2023-06-14T08:44:59;2.95;;;1.90;;
13801;SDS011;6972;51.518;6.918;2023-06-14T08:47:26;5.55;;;2.00;;
13801;SDS011;6972;51.518;6.918;2023-06-14T08:49:54;5.82;;;2.33;;
13801;SDS011;6972;51.518;6.918;2023-06-14T08:52:22;3.63;;;1.88;;
13801;SDS011;6972;51.518;6.918;2023-06-14T08:54:48;8.02;;;2.00;;
13801;SDS011;6972;51.518;6.918;2023-06-14T08:57:15;1.98;;;1.60;;
13801;SDS011;6972;51.518;6.918;2023-06-14T08:59:44;11.52;;;1.80;;
13801;SDS011;6972;51.518;6.918;2023-06-14T09:02:11;10.82;;;1.83;;
13801;SDS011;6972;51.518;6.918;2023-06-14T09:04:39;5.85;;;1.83;;
13801;SDS011;6972;51.518;6.918;2023-06-14T09:07:06;6.45;;;1.80;;
13801;SDS011;6972;51.518;6.918;2023-06-14T09:09:35;4.05;;;1.75;;
13801;SDS011;6972;51.518;6.918;2023-06-14T09:12:04;2.88;;;1.60;;
13801;SDS011;6972;51.518;6.918;2023-06-14T09:14:35;3.95;;;1.70;;
13801;SDS011;6972;51.518;6.918;2023-06-14T09:17:03;1.80;;;1.60;;
13801;SDS011;6972;51.518;6.918;2023-06-14T09:19:29;3.20;;;1.50;;
13801;SDS011;6972;51.518;6.918;2023-06-14T09:21:55;1.80;;;1.42;;
13801;SDS011;6972;51.518;6.918;2023-06-14T09:24:23;2.95;;;1.42;;
13801;SDS011;6972;51.518;6.918;2023-06-14T09:26:51;4.30;;;1.83;;
13801;SDS011;6972;51.518;6.918;2023-06-14T09:29:17;3.63;;;1.60;;
13801;SDS011;6972;51.518;6.918;2023-06-14T09:31:47;2.67;;;1.50;;
13801;SDS011;6972;51.518;6.918;2023-06-14T09:34:13;2.95;;;1.70;;
13801;SDS011;6972;51.518;6.918;2023-06-14T09:36:40;1.58;;;1.48;;
13801;SDS011;6972;51.518;6.918;2023-06-14T09:39:07;1.40;;;1.23;;
13801;SDS011;6972;51.518;6.918;2023-06-14T09:41:37;4.28;;;1.52;;
13801;SDS011;6972;51.518;6.918;2023-06-14T09:44:05;7.95;;;1.52;;
13801;SDS011;6972;51.518;6.918;2023-06-14T09:46:31;4.03;;;1.50;;
13801;SDS011;6972;51.518;6.918;2023-06-14T09:48:59;2.35;;;1.50;;
13801;SDS011;6972;51.518;6.918;2023-06-14T09:51:25;2.30;;;1.40;;
13801;SDS011;6972;51.518;6.918;2023-06-14T09:53:52;1.33;;;1.23;;
13801;SDS011;6972;51.518;6.918;2023-06-14T09:56:20;2.00;;;1.50;;
13801;SDS011;6972;51.518;6.918;2023-06-14T09:58:47;8.13;;;1.23;;
13801;SDS011;6972;51.518;6.918;2023-06-14T10:01:15;1.35;;;1.15;;
13801;SDS011;6972;51.518;6.918;2023-06-14T10:03:42;2.50;;;1.30;;
13801;SDS011;6972;51.518;6.918;2023-06-14T10:06:09;4.20;;;1.50;;
13801;SDS011;6972;51.518;6.918;2023-06-14T10:08:36;4.57;;;1.33;;
13801;SDS011;6972;51.518;6.918;2023-06-14T10:11:02;2.67;;;1.35;;
13801;SDS011;6972;51.518;6.918;2023-06-14T10:13:28;5.40;;;1.33;;
13801;SDS011;6972;51.518;6.918;2023-06-14T10:16:00;2.85;;;1.40;;
13801;SDS011;6972;51.518;6.918;2023-06-14T10:23:37;4.63;;;1.15;;
13801;SDS011;6972;51.518;6.918;2023-06-14T10:26:03;8.02;;;1.10;;
13801;SDS011;6972;51.518;6.918;2023-06-14T10:28:29;3.13;;;1.23;;
13801;SDS011;6972;51.518;6.918;2023-06-14T10:31:03;1.83;;;1.30;;
13801;SDS011;6972;51.518;6.918;2023-06-14T10:33:30;3.20;;;1.00;;
13801;SDS011;6972;51.518;6.918;2023-06-14T10:38:37;4.97;;;1.17;;
13801;SDS011;6972;51.518;6.918;2023-06-14T10:41:04;2.50;;;1.30;;
13801;SDS011;6972;51.518;6.918;2023-06-14T10:43:34;2.50;;;1.40;;
13801;SDS011;6972;51.518;6.918;2023-06-14T10:46:16;2.90;;;1.30;;
13801;SDS011;6972;51.518;6.918;2023-06-14T10:48:43;3.45;;;1.40;;
13801;SDS011;6972;51.518;6.918;2023-06-14T10:51:15;1.65;;;1.45;;
13801;SDS011;6972;51.518;6.918;2023-06-14T10:53:45;4.60;;;1.30;;
13801;SDS011;6972;51.518;6.918;2023-06-14T10:56:22;2.00;;;1.20;;
13801;SDS011;6972;51.518;6.918;2023-06-14T10:58:49;1.50;;;1.23;;
13801;SDS011;6972;51.518;6.918;2023-06-14T11:01:22;1.40;;;1.10;;
13801;SDS011;6972;51.518;6.918;2023-06-14T11:03:55;3.35;;;1.15;;
13801;SDS011;6972;51.518;6.918;2023-06-14T11:06:22;4.90;;;1.30;;
13801;SDS011;6972;51.518;6.918;2023-06-14T11:08:56;4.78;;;1.30;;
13801;SDS011;6972;51.518;6.918;2023-06-14T11:11:34;4.10;;;1.33;;
13801;SDS011;6972;51.518;6.918;2023-06-14T11:14:01;2.88;;;1.20;;
13801;SDS011;6972;51.518;6.918;2023-06-14T11:16:27;6.45;;;1.60;;
13801;SDS011;6972;51.518;6.918;2023-06-14T11:18:54;4.32;;;1.20;;
13801;SDS011;6972;51.518;6.918;2023-06-14T11:21:20;3.88;;;1.10;;
13801;SDS011;6972;51.518;6.918;2023-06-14T11:23:50;1.95;;;1.15;;
13801;SDS011;6972;51.518;6.918;2023-06-14T11:26:23;7.53;;;1.27;;
13801;SDS011;6972;51.518;6.918;2023-06-14T11:28:54;2.00;;;1.20;;
13801;SDS011;6972;51.518;6.918;2023-06-14T11:31:20;4.63;;;1.35;;
13801;SDS011;6972;51.518;6.918;2023-06-14T11:33:49;4.25;;;1.40;;
13801;SDS011;6972;51.518;6.918;2023-06-14T11:36:15;4.13;;;1.20;;
13801;SDS011;6972;51.518;6.918;2023-06-14T11:38:41;3.55;;;1.55;;
13801;SDS011;6972;51.518;6.918;2023-06-14T11:41:08;4.18;;;1.23;;
13801;SDS011;6972;51.518;6.918;2023-06-14T11:43:35;2.08;;;1.33;;
13801;SDS011;6972;51.518;6.918;2023-06-14T11:46:01;2.50;;;1.48;;
13801;SDS011;6972;51.518;6.918;2023-06-14T11:51:23;2.10;;;1.40;;
13801;SDS011;6972;51.518;6.918;2023-06-14T11:53:49;2.00;;;1.40;;
13801;SDS011;6972;51.518;6.918;2023-06-14T11:56:15;3.05;;;1.52;;
13801;SDS011;6972;51.518;6.918;2023-06-14T11:58:44;4.60;;;1.30;;
13801;SDS011;6972;51.518;6.918;2023-06-14T12:01:14;1.60;;;1.50;;
13801;SDS011;6972;51.518;6.918;2023-06-14T12:03:46;3.78;;;1.30;;
13801;SDS011;6972;51.518;6.918;2023-06-14T12:06:13;4.88;;;1.50;;
13801;SDS011;6972;51.518;6.918;2023-06-14T12:08:39;3.40;;;1.58;;
13801;SDS011;6972;51.518;6.918;2023-06-14T12:11:15;1.75;;;1.30;;
13801;SDS011;6972;51.518;6.918;2023-06-14T12:13:42;3.92;;;1.67;;
13801;SDS011;6972;51.518;6.918;2023-06-14T12:16:09;6.25;;;1.95;;
13801;SDS011;6972;51.518;6.918;2023-06-14T12:18:36;2.75;;;1.40;;
13801;SDS011;6972;51.518;6.918;2023-06-14T12:21:06;1.70;;;1.60;;
13801;SDS011;6972;51.518;6.918;2023-06-14T12:23:39;8.88;;;1.90;;
13801;SDS011;6972;51.518;6.918;2023-06-14T12:26:05;7.93;;;1.83;;
13801;SDS011;6972;51.518;6.918;2023-06-14T12:28:31;2.97;;;1.50;;
13801;SDS011;6972;51.518;6.918;2023-06-14T12:31:00;4.95;;;1.55;;
13801;SDS011;6972;51.518;6.918;2023-06-14T12:33:26;4.38;;;1.63;;
13801;SDS011;6972;51.518;6.918;2023-06-14T12:35:54;2.92;;;1.67;;
13801;SDS011;6972;51.518;6.918;2023-06-14T12:38:22;3.05;;;1.75;;
13801;SDS011;6972;51.518;6.918;2023-06-14T12:40:49;4.75;;;1.60;;
13801;SDS011;6972;51.518;6.918;2023-06-14T12:43:15;5.03;;;1.90;;
13801;SDS011;6972;51.518;6.918;2023-06-14T12:45:41;5.93;;;1.50;;
13801;SDS011;6972;51.518;6.918;2023-06-14T12:48:07;5.90;;;1.60;;
13801;SDS011;6972;51.518;6.918;2023-06-14T12:50:34;2.97;;;2.00;;
13801;SDS011;6972;51.518;6.918;2023-06-14T12:53:00;5.00;;;1.70;;
13801;SDS011;6972;51.518;6.918;2023-06-14T12:55:28;4.43;;;1.50;;
13801;SDS011;6972;51.518;6.918;2023-06-14T12:57:55;4.57;;;2.10;;
13801;SDS011;6972;51.518;6.918;2023-06-14T13:00:21;5.75;;;1.65;;
13801;SDS011;6972;51.518;6.918;2023-06-14T13:02:47;6.22;;;1.67;;
13801;SDS011;6972;51.518;6.918;2023-06-14T13:05:13;4.97;;;1.90;;
13801;SDS011;6972;51.518;6.918;2023-06-14T13:07:39;1.88;;;1.70;;
13801;SDS011;6972;51.518;6.918;2023-06-14T13:10:05;2.78;;;1.92;;
13801;SDS011;6972;51.518;6.918;2023-06-14T13:12:34;2.40;;;1.55;;
13801;SDS011;6972;51.518;6.918;2023-06-14T13:15:00;2.92;;;1.80;;
13801;SDS011;6972;51.518;6.918;2023-06-14T13:17:27;2.13;;;1.70;;
13801;SDS011;6972;51.518;6.918;2023-06-14T13:19:53;4.35;;;1.70;;
13801;SDS011;6972;51.518;6.918;2023-06-14T13:22:19;2.97;;;1.90;;
13801;SDS011;6972;51.518;6.918;2023-06-14T13:24:45;6.85;;;2.00;;
13801;SDS011;6972;51.518;6.918;2023-06-14T13:27:11;5.68;;;2.10;;
13801;SDS011;6972;51.518;6.918;2023-06-14T13:29:39;2.97;;;1.70;;
13801;SDS011;6972;51.518;6.918;2023-06-14T13:32:05;3.83;;;1.80;;
13801;SDS011;6972;51.518;6.918;2023-06-14T13:34:32;4.10;;;1.60;;
13801;SDS011;6972;51.518;6.918;2023-06-14T13:36:58;5.72;;;1.80;;
13801;SDS011;6972;51.518;6.918;2023-06-14T13:39:24;1.90;;;1.70;;
13801;SDS011;6972;51.518;6.918;2023-06-14T13:41:51;5.93;;;1.70;;
13801;SDS011;6972;51.518;6.918;2023-06-14T13:44:17;8.48;;;1.95;;
13801;SDS011;6972;51.518;6.918;2023-06-14T13:46:46;4.75;;;1.90;;
13801;SDS011;6972;51.518;6.918;2023-06-14T13:49:12;2.40;;;1.70;;
13801;SDS011;6972;51.518;6.918;2023-06-14T13:51:38;3.05;;;1.70;;
13801;SDS011;6972;51.518;6.918;2023-06-14T13:54:04;2.75;;;1.80;;
13801;SDS011;6972;51.518;6.918;2023-06-14T13:56:31;5.45;;;1.83;;
13801;SDS011;6972;51.518;6.918;2023-06-14T13:58:57;2.88;;;1.77;;
13801;SDS011;6972;51.518;6.918;2023-06-14T14:01:23;2.83;;;1.80;;
13801;SDS011;6972;51.518;6.918;2023-06-14T14:03:50;2.83;;;2.08;;
13801;SDS011;6972;51.518;6.918;2023-06-14T14:06:16;7.95;;;2.05;;
13801;SDS011;6972;51.518;6.918;2023-06-14T14:08:43;10.32;;;1.80;;
13801;SDS011;6972;51.518;6.918;2023-06-14T14:11:09;2.40;;;1.65;;
13801;SDS011;6972;51.518;6.918;2023-06-14T14:13:35;2.58;;;1.45;;
13801;SDS011;6972;51.518;6.918;2023-06-14T14:16:02;12.75;;;2.10;;
13801;SDS011;6972;51.518;6.918;2023-06-14T14:18:28;5.57;;;1.90;;
13801;SDS011;6972;51.518;6.918;2023-06-14T14:20:54;4.68;;;1.85;;
13801;SDS011;6972;51.518;6.918;2023-06-14T14:23:21;2.55;;;1.70;;
13801;SDS011;6972;51.518;6.918;2023-06-14T14:25:47;4.82;;;1.98;;
13801;SDS011;6972;51.518;6.918;2023-06-14T14:28:13;3.20;;;1.90;;
13801;SDS011;6972;51.518;6.918;2023-06-14T14:30:41;4.95;;;1.80;;
13801;SDS011;6972;51.518;6.918;2023-06-14T14:33:07;5.82;;;2.47;;
13801;SDS011;6972;51.518;6.918;2023-06-14T14:35:33;5.80;;;1.98;;
13801;SDS011;6972;51.518;6.918;2023-06-14T14:37:59;5.10;;;2.05;;
13801;SDS011;6972;51.518;6.918;2023-06-14T14:40:28;5.70;;;1.90;;
13801;SDS011;6972;51.518;6.918;2023-06-14T14:42:54;6.32;;;2.03;;
13801;SDS011;6972;51.518;6.918;2023-06-14T14:45:20;9.18;;;2.03;;
13801;SDS011;6972;51.518;6.918;2023-06-14T14:47:46;2.67;;;1.70;;
13801;SDS011;6972;51.518;6.918;2023-06-14T14:50:12;2.08;;;1.65;;
13801;SDS011;6972;51.518;6.918;2023-06-14T14:52:38;5.18;;;1.90;;
13801;SDS011;6972;51.518;6.918;2023-06-14T14:55:04;2.78;;;1.70;;
13801;SDS011;6972;51.518;6.918;2023-06-14T14:57:31;4.32;;;1.63;;
13801;SDS011;6972;51.518;6.918;2023-06-14T14:59:57;3.58;;;1.67;;
13801;SDS011;6972;51.518;6.918;2023-06-14T15:02:23;2.58;;;1.90;;
13801;SDS011;6972;51.518;6.918;2023-06-14T15:04:49;2.05;;;1.80;;
13801;SDS011;6972;51.518;6.918;2023-06-14T15:07:16;2.53;;;1.80;;
13801;SDS011;6972;51.518;6.918;2023-06-14T15:09:42;3.60;;;1.90;;
13801;SDS011;6972;51.518;6.918;2023-06-14T15:12:09;3.50;;;1.73;;
13801;SDS011;6972;51.518;6.918;2023-06-14T15:14:35;4.47;;;2.30;;